sensor_id;sensor_type;location;lat;lon;timestamp;pressure;altitude;pressure_sealevel;temperature
20736;BMP180;10528;52.124;5.196;2023-02-23T00:02:00;101197.00;;;15.10
20736;BMP180;10528;52.124;5.196;2023-02-23T00:04:34;101198.00;;;15.10
20736;BMP180;10528;52.124;5.196;2023-02-23T00:07:02;101203.00;;;15.10
20736;BMP180;10528;52.124;5.196;2023-02-23T00:09:33;101186.00;;;15.00
20736;BMP180;10528;52.124;5.196;2023-02-23T00:12:05;101198.00;;;15.00
20736;BMP180;10528;52.124;5.196;2023-02-23T00:14:36;101191.00;;;15.00
20736;BMP180;10528;52.124;5.196;2023-02-23T00:17:05;101194.00;;;15.00
20736;BMP180;10528;52.124;5.196;2023-02-23T00:19:40;101196.00;;;15.10
20736;BMP180;10528;52.124;5.196;2023-02-23T00:22:09;101184.00;;;15.00
20736;BMP180;10528;52.124;5.196;2023-02-23T00:24:36;101179.00;;;15.00
20736;BMP180;10528;52.124;5.196;2023-02-23T00:27:04;101185.00;;;15.00
20736;BMP180;10528;52.124;5.196;2023-02-23T00:29:32;101181.00;;;15.00
20736;BMP180;10528;52.124;5.196;2023-02-23T00:32:05;101191.00;;;15.00
20736;BMP180;10528;52.124;5.196;2023-02-23T00:34:33;101184.00;;;15.00
20736;BMP180;10528;52.124;5.196;2023-02-23T00:37:02;101190.00;;;15.00
20736;BMP180;10528;52.124;5.196;2023-02-23T00:39:30;101188.00;;;15.00
20736;BMP180;10528;52.124;5.196;2023-02-23T00:41:57;101180.00;;;15.00
20736;BMP180;10528;52.124;5.196;2023-02-23T00:44:29;101188.00;;;15.00
20736;BMP180;10528;52.124;5.196;2023-02-23T00:46:57;101187.00;;;15.00
20736;BMP180;10528;52.124;5.196;2023-02-23T00:49:24;101173.00;;;15.00
20736;BMP180;10528;52.124;5.196;2023-02-23T00:51:52;101180.00;;;15.00
20736;BMP180;10528;52.124;5.196;2023-02-23T00:54:20;101183.00;;;15.00
20736;BMP180;10528;52.124;5.196;2023-02-23T00:56:48;101173.00;;;15.00
20736;BMP180;10528;52.124;5.196;2023-02-23T00:59:15;101183.00;;;15.00
20736;BMP180;10528;52.124;5.196;2023-02-23T01:01:42;101179.00;;;15.00
20736;BMP180;10528;52.124;5.196;2023-02-23T01:04:11;101186.00;;;15.00
20736;BMP180;10528;52.124;5.196;2023-02-23T01:06:39;101168.00;;;15.00
20736;BMP180;10528;52.124;5.196;2023-02-23T01:09:10;101175.00;;;14.90
20736;BMP180;10528;52.124;5.196;2023-02-23T01:11:39;101175.00;;;14.90
20736;BMP180;10528;52.124;5.196;2023-02-23T01:14:09;101171.00;;;14.90
20736;BMP180;10528;52.124;5.196;2023-02-23T01:16:36;101183.00;;;14.90
20736;BMP180;10528;52.124;5.196;2023-02-23T01:19:05;101187.00;;;14.90
20736;BMP180;10528;52.124;5.196;2023-02-23T01:21:36;101183.00;;;14.90
20736;BMP180;10528;52.124;5.196;2023-02-23T01:24:05;101187.00;;;14.90
20736;BMP180;10528;52.124;5.196;2023-02-23T01:26:41;101177.00;;;14.90
20736;BMP180;10528;52.124;5.196;2023-02-23T01:29:14;101187.00;;;14.90
20736;BMP180;10528;52.124;5.196;2023-02-23T01:31:47;101188.00;;;14.90
20736;BMP180;10528;52.124;5.196;2023-02-23T01:34:19;101174.00;;;14.90
20736;BMP180;10528;52.124;5.196;2023-02-23T01:36:47;101180.00;;;14.90
20736;BMP180;10528;52.124;5.196;2023-02-23T01:39:19;101188.00;;;14.90
20736;BMP180;10528;52.124;5.196;2023-02-23T01:41:46;101181.00;;;14.90
20736;BMP180;10528;52.124;5.196;2023-02-23T01:46:44;101189.00;;;14.90
20736;BMP180;10528;52.124;5.196;2023-02-23T01:49:20;101186.00;;;14.90
20736;BMP180;10528;52.124;5.196;2023-02-23T01:51:55;101182.00;;;14.90
20736;BMP180;10528;52.124;5.196;2023-02-23T01:54:44;101184.00;;;14.90
20736;BMP180;10528;52.124;5.196;2023-02-23T01:57:19;101178.00;;;14.90
20736;BMP180;10528;52.124;5.196;2023-02-23T01:59:49;101182.00;;;14.90
20736;BMP180;10528;52.124;5.196;2023-02-23T02:02:20;101178.00;;;14.90
20736;BMP180;10528;52.124;5.196;2023-02-23T02:04:48;101186.00;;;14.90
20736;BMP180;10528;52.124;5.196;2023-02-23T02:07:26;101183.00;;;14.90
20736;BMP180;10528;52.124;5.196;2023-02-23T02:09:57;101183.00;;;14.90
20736;BMP180;10528;52.124;5.196;2023-02-23T02:12:55;101192.00;;;14.90
20736;BMP180;10528;52.124;5.196;2023-02-23T02:15:34;101181.00;;;14.90
20736;BMP180;10528;52.124;5.196;2023-02-23T02:18:32;101201.00;;;14.90
20736;BMP180;10528;52.124;5.196;2023-02-23T02:24:57;101210.00;;;14.90
20736;BMP180;10528;52.124;5.196;2023-02-23T02:28:22;101197.00;;;14.90
20736;BMP180;10528;52.124;5.196;2023-02-23T02:31:04;101192.00;;;14.90
20736;BMP180;10528;52.124;5.196;2023-02-23T02:39:59;101196.00;;;14.80
20736;BMP180;10528;52.124;5.196;2023-02-23T02:43:22;101201.00;;;14.80
20736;BMP180;10528;52.124;5.196;2023-02-23T02:46:15;101182.00;;;14.80
20736;BMP180;10528;52.124;5.196;2023-02-23T02:49:12;101186.00;;;14.80
20736;BMP180;10528;52.124;5.196;2023-02-23T02:51:48;101193.00;;;14.80
20736;BMP180;10528;52.124;5.196;2023-02-23T02:54:34;101188.00;;;14.80
20736;BMP180;10528;52.124;5.196;2023-02-23T02:57:05;101186.00;;;14.80
20736;BMP180;10528;52.124;5.196;2023-02-23T02:59:47;101192.00;;;14.80
20736;BMP180;10528;52.124;5.196;2023-02-23T03:02:40;101192.00;;;14.80
20736;BMP180;10528;52.124;5.196;2023-02-23T03:05:42;101188.00;;;14.80
20736;BMP180;10528;52.124;5.196;2023-02-23T03:08:57;101184.00;;;14.80
20736;BMP180;10528;52.124;5.196;2023-02-23T03:12:43;101187.00;;;14.80
20736;BMP180;10528;52.124;5.196;2023-02-23T03:15:59;101186.00;;;14.70
20736;BMP180;10528;52.124;5.196;2023-02-23T03:22:24;101183.00;;;14.70
20736;BMP180;10528;52.124;5.196;2023-02-23T03:25:20;101185.00;;;14.70
20736;BMP180;10528;52.124;5.196;2023-02-23T03:28:19;101188.00;;;14.70
20736;BMP180;10528;52.124;5.196;2023-02-23T03:31:26;101183.00;;;14.70
20736;BMP180;10528;52.124;5.196;2023-02-23T03:34:27;101192.00;;;14.70
20736;BMP180;10528;52.124;5.196;2023-02-23T03:37:31;101193.00;;;14.70
20736;BMP180;10528;52.124;5.196;2023-02-23T03:40:37;101199.00;;;14.70
20736;BMP180;10528;52.124;5.196;2023-02-23T03:43:34;101198.00;;;14.70
20736;BMP180;10528;52.124;5.196;2023-02-23T03:46:24;101201.00;;;14.70
20736;BMP180;10528;52.124;5.196;2023-02-23T03:49:14;101205.00;;;14.70
20736;BMP180;10528;52.124;5.196;2023-02-23T03:52:10;101203.00;;;14.70
20736;BMP180;10528;52.124;5.196;2023-02-23T03:55:01;101203.00;;;14.70
20736;BMP180;10528;52.124;5.196;2023-02-23T03:57:51;101202.00;;;14.70
20736;BMP180;10528;52.124;5.196;2023-02-23T04:00:45;101211.00;;;14.70
20736;BMP180;10528;52.124;5.196;2023-02-23T04:03:38;101204.00;;;14.70
20736;BMP180;10528;52.124;5.196;2023-02-23T04:06:28;101212.00;;;14.70
20736;BMP180;10528;52.124;5.196;2023-02-23T04:09:16;101213.00;;;14.70
20736;BMP180;10528;52.124;5.196;2023-02-23T04:12:25;101209.00;;;14.70
20736;BMP180;10528;52.124;5.196;2023-02-23T04:15:38;101217.00;;;14.70
20736;BMP180;10528;52.124;5.196;2023-02-23T04:18:13;101217.00;;;14.70
20736;BMP180;10528;52.124;5.196;2023-02-23T04:20:40;101220.00;;;14.70
20736;BMP180;10528;52.124;5.196;2023-02-23T04:23:07;101225.00;;;14.70
20736;BMP180;10528;52.124;5.196;2023-02-23T04:25:35;101228.00;;;14.70
20736;BMP180;10528;52.124;5.196;2023-02-23T04:28:01;101220.00;;;14.70
20736;BMP180;10528;52.124;5.196;2023-02-23T04:30:29;101223.00;;;14.70
20736;BMP180;10528;52.124;5.196;2023-02-23T04:32:56;101224.00;;;14.70
20736;BMP180;10528;52.124;5.196;2023-02-23T04:35:25;101233.00;;;14.70
20736;BMP180;10528;52.124;5.196;2023-02-23T04:37:54;101228.00;;;14.70
20736;BMP180;10528;52.124;5.196;2023-02-23T04:40:21;101228.00;;;14.70
20736;BMP180;10528;52.124;5.196;2023-02-23T04:42:50;101231.00;;;14.70
20736;BMP180;10528;52.124;5.196;2023-02-23T04:45:17;101237.00;;;14.70
20736;BMP180;10528;52.124;5.196;2023-02-23T04:47:44;101242.00;;;14.70
20736;BMP180;10528;52.124;5.196;2023-02-23T04:50:12;101242.00;;;14.70
20736;BMP180;10528;52.124;5.196;2023-02-23T04:52:40;101240.00;;;14.70
20736;BMP180;10528;52.124;5.196;2023-02-23T04:55:14;101244.00;;;14.70
20736;BMP180;10528;52.124;5.196;2023-02-23T04:57:42;101234.00;;;14.70
20736;BMP180;10528;52.124;5.196;2023-02-23T05:00:10;101235.00;;;14.70
20736;BMP180;10528;52.124;5.196;2023-02-23T05:02:37;101248.00;;;14.70
20736;BMP180;10528;52.124;5.196;2023-02-23T05:05:06;101242.00;;;14.70
20736;BMP180;10528;52.124;5.196;2023-02-23T05:07:35;101247.00;;;14.70
20736;BMP180;10528;52.124;5.196;2023-02-23T05:10:04;101251.00;;;14.70
20736;BMP180;10528;52.124;5.196;2023-02-23T05:12:31;101250.00;;;14.70
20736;BMP180;10528;52.124;5.196;2023-02-23T05:14:58;101250.00;;;14.70
20736;BMP180;10528;52.124;5.196;2023-02-23T05:17:25;101250.00;;;14.70
20736;BMP180;10528;52.124;5.196;2023-02-23T05:19:52;101252.00;;;14.70
20736;BMP180;10528;52.124;5.196;2023-02-23T05:22:19;101252.00;;;14.70
20736;BMP180;10528;52.124;5.196;2023-02-23T05:24:46;101260.00;;;14.70
20736;BMP180;10528;52.124;5.196;2023-02-23T05:27:13;101258.00;;;14.70
20736;BMP180;10528;52.124;5.196;2023-02-23T05:29:41;101258.00;;;14.70
20736;BMP180;10528;52.124;5.196;2023-02-23T05:32:07;101254.00;;;14.70
20736;BMP180;10528;52.124;5.196;2023-02-23T05:34:34;101262.00;;;14.70
20736;BMP180;10528;52.124;5.196;2023-02-23T05:37:02;101258.00;;;14.70
20736;BMP180;10528;52.124;5.196;2023-02-23T05:39:29;101264.00;;;14.70
20736;BMP180;10528;52.124;5.196;2023-02-23T05:41:56;101267.00;;;14.70
20736;BMP180;10528;52.124;5.196;2023-02-23T05:44:23;101266.00;;;14.70
20736;BMP180;10528;52.124;5.196;2023-02-23T05:46:50;101264.00;;;14.70
20736;BMP180;10528;52.124;5.196;2023-02-23T05:49:17;101268.00;;;14.70
20736;BMP180;10528;52.124;5.196;2023-02-23T05:51:44;101259.00;;;14.70
20736;BMP180;10528;52.124;5.196;2023-02-23T05:54:11;101267.00;;;14.70
20736;BMP180;10528;52.124;5.196;2023-02-23T05:56:41;101272.00;;;14.70
20736;BMP180;10528;52.124;5.196;2023-02-23T05:59:08;101264.00;;;14.70
20736;BMP180;10528;52.124;5.196;2023-02-23T06:01:35;101264.00;;;14.70
20736;BMP180;10528;52.124;5.196;2023-02-23T06:04:02;101263.00;;;14.70
20736;BMP180;10528;52.124;5.196;2023-02-23T06:06:31;101272.00;;;14.70
20736;BMP180;10528;52.124;5.196;2023-02-23T06:08:58;101278.00;;;14.70
20736;BMP180;10528;52.124;5.196;2023-02-23T06:11:25;101264.00;;;14.70
20736;BMP180;10528;52.124;5.196;2023-02-23T06:13:52;101265.00;;;14.70
20736;BMP180;10528;52.124;5.196;2023-02-23T06:16:19;101273.00;;;14.70
20736;BMP180;10528;52.124;5.196;2023-02-23T06:18:46;101279.00;;;14.70
20736;BMP180;10528;52.124;5.196;2023-02-23T06:21:13;101279.00;;;14.70
20736;BMP180;10528;52.124;5.196;2023-02-23T06:23:40;101279.00;;;14.70
20736;BMP180;10528;52.124;5.196;2023-02-23T06:26:07;101271.00;;;14.70
20736;BMP180;10528;52.124;5.196;2023-02-23T06:28:34;101281.00;;;14.70
20736;BMP180;10528;52.124;5.196;2023-02-23T06:31:02;101291.00;;;14.70
20736;BMP180;10528;52.124;5.196;2023-02-23T06:33:29;101291.00;;;14.70
20736;BMP180;10528;52.124;5.196;2023-02-23T06:35:56;101291.00;;;14.70
20736;BMP180;10528;52.124;5.196;2023-02-23T06:38:23;101295.00;;;14.70
20736;BMP180;10528;52.124;5.196;2023-02-23T06:40:49;101297.00;;;14.70
20736;BMP180;10528;52.124;5.196;2023-02-23T06:43:16;101300.00;;;14.70
20736;BMP180;10528;52.124;5.196;2023-02-23T06:45:45;101306.00;;;14.70
20736;BMP180;10528;52.124;5.196;2023-02-23T06:48:12;101302.00;;;14.70
20736;BMP180;10528;52.124;5.196;2023-02-23T06:50:39;101305.00;;;14.70
20736;BMP180;10528;52.124;5.196;2023-02-23T06:53:06;101313.00;;;14.70
20736;BMP180;10528;52.124;5.196;2023-02-23T06:55:33;101308.00;;;14.70
20736;BMP180;10528;52.124;5.196;2023-02-23T06:58:00;101296.00;;;14.70
20736;BMP180;10528;52.124;5.196;2023-02-23T07:00:26;101305.00;;;14.70
20736;BMP180;10528;52.124;5.196;2023-02-23T07:02:53;101303.00;;;14.70
20736;BMP180;10528;52.124;5.196;2023-02-23T07:05:22;101312.00;;;14.70
20736;BMP180;10528;52.124;5.196;2023-02-23T07:07:49;101318.00;;;14.70
20736;BMP180;10528;52.124;5.196;2023-02-23T07:10:17;101323.00;;;14.70
20736;BMP180;10528;52.124;5.196;2023-02-23T07:12:44;101326.00;;;14.70
20736;BMP180;10528;52.124;5.196;2023-02-23T07:15:11;101336.00;;;14.70
20736;BMP180;10528;52.124;5.196;2023-02-23T07:17:38;101340.00;;;14.70
20736;BMP180;10528;52.124;5.196;2023-02-23T07:20:05;101333.00;;;14.70
20736;BMP180;10528;52.124;5.196;2023-02-23T07:22:33;101344.00;;;14.70
20736;BMP180;10528;52.124;5.196;2023-02-23T07:24:59;101351.00;;;14.70
20736;BMP180;10528;52.124;5.196;2023-02-23T07:27:26;101356.00;;;14.70
20736;BMP180;10528;52.124;5.196;2023-02-23T07:29:53;101356.00;;;14.70
20736;BMP180;10528;52.124;5.196;2023-02-23T07:32:20;101362.00;;;14.70
20736;BMP180;10528;52.124;5.196;2023-02-23T07:34:47;101370.00;;;14.70
20736;BMP180;10528;52.124;5.196;2023-02-23T07:37:14;101360.00;;;14.70
20736;BMP180;10528;52.124;5.196;2023-02-23T07:39:43;101371.00;;;14.70
20736;BMP180;10528;52.124;5.196;2023-02-23T07:42:10;101376.00;;;14.80
20736;BMP180;10528;52.124;5.196;2023-02-23T07:44:37;101375.00;;;14.80
20736;BMP180;10528;52.124;5.196;2023-02-23T07:47:05;101369.00;;;14.80
20736;BMP180;10528;52.124;5.196;2023-02-23T07:49:33;101378.00;;;14.80
20736;BMP180;10528;52.124;5.196;2023-02-23T07:52:00;101372.00;;;14.80
20736;BMP180;10528;52.124;5.196;2023-02-23T07:54:27;101388.00;;;14.80
20736;BMP180;10528;52.124;5.196;2023-02-23T07:56:54;101384.00;;;14.80
20736;BMP180;10528;52.124;5.196;2023-02-23T07:59:21;101383.00;;;14.80
20736;BMP180;10528;52.124;5.196;2023-02-23T08:01:48;101390.00;;;14.80
20736;BMP180;10528;52.124;5.196;2023-02-23T08:04:15;101388.00;;;14.90
20736;BMP180;10528;52.124;5.196;2023-02-23T08:06:42;101397.00;;;14.90
20736;BMP180;10528;52.124;5.196;2023-02-23T08:09:10;101394.00;;;14.90
20736;BMP180;10528;52.124;5.196;2023-02-23T08:11:37;101392.00;;;14.90
20736;BMP180;10528;52.124;5.196;2023-02-23T08:14:05;101402.00;;;14.90
20736;BMP180;10528;52.124;5.196;2023-02-23T08:16:32;101408.00;;;14.90
20736;BMP180;10528;52.124;5.196;2023-02-23T08:19:00;101410.00;;;14.90
20736;BMP180;10528;52.124;5.196;2023-02-23T08:21:30;101415.00;;;14.90
20736;BMP180;10528;52.124;5.196;2023-02-23T08:23:57;101415.00;;;14.90
20736;BMP180;10528;52.124;5.196;2023-02-23T08:26:25;101409.00;;;14.90
20736;BMP180;10528;52.124;5.196;2023-02-23T08:28:53;101422.00;;;14.90
20736;BMP180;10528;52.124;5.196;2023-02-23T08:31:20;101413.00;;;14.90
20736;BMP180;10528;52.124;5.196;2023-02-23T08:33:51;101422.00;;;14.90
20736;BMP180;10528;52.124;5.196;2023-02-23T08:36:18;101420.00;;;15.00
20736;BMP180;10528;52.124;5.196;2023-02-23T08:38:49;101420.00;;;15.00
20736;BMP180;10528;52.124;5.196;2023-02-23T08:41:16;101421.00;;;15.00
20736;BMP180;10528;52.124;5.196;2023-02-23T08:43:43;101426.00;;;15.00
20736;BMP180;10528;52.124;5.196;2023-02-23T08:46:11;101419.00;;;15.00
20736;BMP180;10528;52.124;5.196;2023-02-23T08:48:38;101434.00;;;15.00
20736;BMP180;10528;52.124;5.196;2023-02-23T08:51:07;101433.00;;;15.00
20736;BMP180;10528;52.124;5.196;2023-02-23T08:53:34;101434.00;;;15.00
20736;BMP180;10528;52.124;5.196;2023-02-23T08:56:04;101431.00;;;15.10
20736;BMP180;10528;52.124;5.196;2023-02-23T08:58:34;101442.00;;;15.10
20736;BMP180;10528;52.124;5.196;2023-02-23T09:01:02;101446.00;;;15.10
20736;BMP180;10528;52.124;5.196;2023-02-23T09:03:30;101441.00;;;15.10
20736;BMP180;10528;52.124;5.196;2023-02-23T09:06:06;101439.00;;;15.10
20736;BMP180;10528;52.124;5.196;2023-02-23T09:08:33;101453.00;;;15.10
20736;BMP180;10528;52.124;5.196;2023-02-23T09:11:00;101453.00;;;15.10
20736;BMP180;10528;52.124;5.196;2023-02-23T09:13:27;101459.00;;;15.10
20736;BMP180;10528;52.124;5.196;2023-02-23T09:15:53;101453.00;;;15.20
20736;BMP180;10528;52.124;5.196;2023-02-23T09:18:21;101463.00;;;15.20
20736;BMP180;10528;52.124;5.196;2023-02-23T09:20:50;101457.00;;;15.20
20736;BMP180;10528;52.124;5.196;2023-02-23T09:23:16;101455.00;;;15.20
20736;BMP180;10528;52.124;5.196;2023-02-23T09:25:44;101465.00;;;15.30
20736;BMP180;10528;52.124;5.196;2023-02-23T09:28:18;101462.00;;;15.30
20736;BMP180;10528;52.124;5.196;2023-02-23T09:30:46;101460.00;;;15.30
20736;BMP180;10528;52.124;5.196;2023-02-23T09:33:13;101471.00;;;15.30
20736;BMP180;10528;52.124;5.196;2023-02-23T09:35:40;101474.00;;;15.30
20736;BMP180;10528;52.124;5.196;2023-02-23T09:38:08;101476.00;;;15.40
20736;BMP180;10528;52.124;5.196;2023-02-23T09:40:48;101480.00;;;15.40
20736;BMP180;10528;52.124;5.196;2023-02-23T09:43:41;101481.00;;;15.40
20736;BMP180;10528;52.124;5.196;2023-02-23T09:46:31;101477.00;;;15.40
20736;BMP180;10528;52.124;5.196;2023-02-23T09:49:03;101481.00;;;15.40
20736;BMP180;10528;52.124;5.196;2023-02-23T09:51:39;101472.00;;;15.40
20736;BMP180;10528;52.124;5.196;2023-02-23T09:54:11;101482.00;;;15.40
20736;BMP180;10528;52.124;5.196;2023-02-23T09:56:45;101471.00;;;15.50
20736;BMP180;10528;52.124;5.196;2023-02-23T09:59:19;101482.00;;;15.50
20736;BMP180;10528;52.124;5.196;2023-02-23T10:07:51;101494.00;;;15.50
20736;BMP180;10528;52.124;5.196;2023-02-23T10:10:47;101488.00;;;15.50
20736;BMP180;10528;52.124;5.196;2023-02-23T10:13:46;101480.00;;;15.40
20736;BMP180;10528;52.124;5.196;2023-02-23T10:16:47;101487.00;;;15.40
20736;BMP180;10528;52.124;5.196;2023-02-23T10:22:02;101478.00;;;15.50
20736;BMP180;10528;52.124;5.196;2023-02-23T10:27:14;101490.00;;;15.50
20736;BMP180;10528;52.124;5.196;2023-02-23T10:29:48;101500.00;;;15.50
20736;BMP180;10528;52.124;5.196;2023-02-23T10:32:40;101505.00;;;15.50
20736;BMP180;10528;52.124;5.196;2023-02-23T10:35:15;101509.00;;;15.50
20736;BMP180;10528;52.124;5.196;2023-02-23T10:37:44;101505.00;;;15.50
20736;BMP180;10528;52.124;5.196;2023-02-23T10:40:25;101502.00;;;15.50
20736;BMP180;10528;52.124;5.196;2023-02-23T10:42:57;101504.00;;;15.50
20736;BMP180;10528;52.124;5.196;2023-02-23T10:45:28;101500.00;;;15.50
20736;BMP180;10528;52.124;5.196;2023-02-23T10:48:06;101507.00;;;15.50
20736;BMP180;10528;52.124;5.196;2023-02-23T10:50:37;101509.00;;;15.50
20736;BMP180;10528;52.124;5.196;2023-02-23T10:53:22;101514.00;;;15.60
20736;BMP180;10528;52.124;5.196;2023-02-23T10:56:11;101504.00;;;15.60
20736;BMP180;10528;52.124;5.196;2023-02-23T10:58:55;101510.00;;;15.60
20736;BMP180;10528;52.124;5.196;2023-02-23T11:01:38;101507.00;;;15.60
20736;BMP180;10528;52.124;5.196;2023-02-23T11:04:30;101496.00;;;15.70
20736;BMP180;10528;52.124;5.196;2023-02-23T11:07:24;101493.00;;;15.70
20736;BMP180;10528;52.124;5.196;2023-02-23T11:09:57;101510.00;;;15.80
20736;BMP180;10528;52.124;5.196;2023-02-23T11:12:35;101503.00;;;15.80
20736;BMP180;10528;52.124;5.196;2023-02-23T11:15:31;101514.00;;;15.80
20736;BMP180;10528;52.124;5.196;2023-02-23T11:18:24;101496.00;;;15.80
20736;BMP180;10528;52.124;5.196;2023-02-23T11:20:52;101501.00;;;15.90
20736;BMP180;10528;52.124;5.196;2023-02-23T11:26:26;101518.00;;;15.80
20736;BMP180;10528;52.124;5.196;2023-02-23T11:28:59;101516.00;;;15.80
20736;BMP180;10528;52.124;5.196;2023-02-23T11:31:32;101525.00;;;15.80
20736;BMP180;10528;52.124;5.196;2023-02-23T11:34:05;101523.00;;;15.80
20736;BMP180;10528;52.124;5.196;2023-02-23T11:36:36;101522.00;;;15.70
20736;BMP180;10528;52.124;5.196;2023-02-23T11:41:42;101523.00;;;15.70
20736;BMP180;10528;52.124;5.196;2023-02-23T11:44:22;101519.00;;;15.60
20736;BMP180;10528;52.124;5.196;2023-02-23T11:46:50;101530.00;;;15.70
20736;BMP180;10528;52.124;5.196;2023-02-23T11:49:27;101523.00;;;15.70
20736;BMP180;10528;52.124;5.196;2023-02-23T11:51:56;101519.00;;;15.70
20736;BMP180;10528;52.124;5.196;2023-02-23T11:54:33;101514.00;;;15.70
20736;BMP180;10528;52.124;5.196;2023-02-23T11:57:01;101505.00;;;15.70
20736;BMP180;10528;52.124;5.196;2023-02-23T11:59:31;101503.00;;;15.70
20736;BMP180;10528;52.124;5.196;2023-02-23T12:05:05;101518.00;;;15.70
20736;BMP180;10528;52.124;5.196;2023-02-23T12:08:19;101523.00;;;15.70
20736;BMP180;10528;52.124;5.196;2023-02-23T12:10:54;101511.00;;;15.70
20736;BMP180;10528;52.124;5.196;2023-02-23T12:13:50;101505.00;;;15.70
20736;BMP180;10528;52.124;5.196;2023-02-23T12:16:36;101514.00;;;15.70
20736;BMP180;10528;52.124;5.196;2023-02-23T12:19:48;101516.00;;;15.70
20736;BMP180;10528;52.124;5.196;2023-02-23T12:22:24;101512.00;;;15.70
20736;BMP180;10528;52.124;5.196;2023-02-23T12:25:02;101515.00;;;15.80
20736;BMP180;10528;52.124;5.196;2023-02-23T12:30:35;101506.00;;;15.80
20736;BMP180;10528;52.124;5.196;2023-02-23T12:33:14;101506.00;;;15.80
20736;BMP180;10528;52.124;5.196;2023-02-23T12:42:22;101516.00;;;15.70
20736;BMP180;10528;52.124;5.196;2023-02-23T12:44:55;101525.00;;;15.80
20736;BMP180;10528;52.124;5.196;2023-02-23T12:47:44;101510.00;;;15.70
20736;BMP180;10528;52.124;5.196;2023-02-23T12:50:31;101523.00;;;15.70
20736;BMP180;10528;52.124;5.196;2023-02-23T12:53:42;101509.00;;;15.70
20736;BMP180;10528;52.124;5.196;2023-02-23T13:05:36;101517.00;;;15.80
20736;BMP180;10528;52.124;5.196;2023-02-23T13:08:37;101511.00;;;15.90
20736;BMP180;10528;52.124;5.196;2023-02-23T13:14:28;101492.00;;;15.90
20736;BMP180;10528;52.124;5.196;2023-02-23T13:19:40;101494.00;;;16.00
20736;BMP180;10528;52.124;5.196;2023-02-23T13:23:04;101494.00;;;16.10
20736;BMP180;10528;52.124;5.196;2023-02-23T13:26:04;101502.00;;;16.10
20736;BMP180;10528;52.124;5.196;2023-02-23T13:28:58;101499.00;;;16.10
20736;BMP180;10528;52.124;5.196;2023-02-23T13:31:33;101502.00;;;16.10
20736;BMP180;10528;52.124;5.196;2023-02-23T13:34:05;101507.00;;;16.10
20736;BMP180;10528;52.124;5.196;2023-02-23T13:36:34;101499.00;;;16.10
20736;BMP180;10528;52.124;5.196;2023-02-23T13:42:25;101514.00;;;16.10
20736;BMP180;10528;52.124;5.196;2023-02-23T13:47:48;101507.00;;;16.10
20736;BMP180;10528;52.124;5.196;2023-02-23T13:50:49;101511.00;;;16.10
20736;BMP180;10528;52.124;5.196;2023-02-23T13:56:18;101504.00;;;16.10
20736;BMP180;10528;52.124;5.196;2023-02-23T13:58:51;101519.00;;;16.10
20736;BMP180;10528;52.124;5.196;2023-02-23T14:01:31;101513.00;;;16.10
20736;BMP180;10528;52.124;5.196;2023-02-23T14:04:03;101528.00;;;16.10
20736;BMP180;10528;52.124;5.196;2023-02-23T14:06:33;101527.00;;;16.10
20736;BMP180;10528;52.124;5.196;2023-02-23T14:09:10;101520.00;;;16.00
20736;BMP180;10528;52.124;5.196;2023-02-23T14:11:51;101522.00;;;16.00
20736;BMP180;10528;52.124;5.196;2023-02-23T14:25:51;101530.00;;;15.90
20736;BMP180;10528;52.124;5.196;2023-02-23T14:39:02;101515.00;;;15.90
20736;BMP180;10528;52.124;5.196;2023-02-23T14:41:51;101523.00;;;15.90
20736;BMP180;10528;52.124;5.196;2023-02-23T14:44:25;101520.00;;;16.00
20736;BMP180;10528;52.124;5.196;2023-02-23T14:49:58;101513.00;;;16.00
20736;BMP180;10528;52.124;5.196;2023-02-23T14:52:35;101518.00;;;16.00
20736;BMP180;10528;52.124;5.196;2023-02-23T14:55:27;101514.00;;;16.00
20736;BMP180;10528;52.124;5.196;2023-02-23T14:57:56;101511.00;;;16.00
20736;BMP180;10528;52.124;5.196;2023-02-23T15:00:28;101518.00;;;16.00
20736;BMP180;10528;52.124;5.196;2023-02-23T15:03:09;101520.00;;;16.00
20736;BMP180;10528;52.124;5.196;2023-02-23T15:05:48;101512.00;;;16.00
20736;BMP180;10528;52.124;5.196;2023-02-23T15:08:22;101518.00;;;15.90
20736;BMP180;10528;52.124;5.196;2023-02-23T15:11:06;101517.00;;;15.90
20736;BMP180;10528;52.124;5.196;2023-02-23T15:13:40;101527.00;;;15.80
20736;BMP180;10528;52.124;5.196;2023-02-23T15:16:20;101528.00;;;15.80
20736;BMP180;10528;52.124;5.196;2023-02-23T15:18:49;101533.00;;;15.70
20736;BMP180;10528;52.124;5.196;2023-02-23T15:21:21;101529.00;;;15.70
20736;BMP180;10528;52.124;5.196;2023-02-23T15:23:56;101540.00;;;15.60
20736;BMP180;10528;52.124;5.196;2023-02-23T15:26:33;101541.00;;;15.60
20736;BMP180;10528;52.124;5.196;2023-02-23T15:29:23;101547.00;;;15.60
20736;BMP180;10528;52.124;5.196;2023-02-23T15:31:54;101553.00;;;15.50
20736;BMP180;10528;52.124;5.196;2023-02-23T15:34:25;101546.00;;;15.50
20736;BMP180;10528;52.124;5.196;2023-02-23T15:37:04;101559.00;;;15.50
20736;BMP180;10528;52.124;5.196;2023-02-23T15:39:47;101562.00;;;15.40
20736;BMP180;10528;52.124;5.196;2023-02-23T15:42:21;101552.00;;;15.30
20736;BMP180;10528;52.124;5.196;2023-02-23T15:45:03;101555.00;;;15.20
20736;BMP180;10528;52.124;5.196;2023-02-23T15:47:35;101570.00;;;15.20
20736;BMP180;10528;52.124;5.196;2023-02-23T15:50:18;101573.00;;;15.10
20736;BMP180;10528;52.124;5.196;2023-02-23T15:53:16;101577.00;;;15.10
20736;BMP180;10528;52.124;5.196;2023-02-23T15:55:47;101584.00;;;15.00
20736;BMP180;10528;52.124;5.196;2023-02-23T15:58:21;101584.00;;;15.00
20736;BMP180;10528;52.124;5.196;2023-02-23T16:00:57;101588.00;;;14.90
20736;BMP180;10528;52.124;5.196;2023-02-23T16:03:33;101592.00;;;14.90
20736;BMP180;10528;52.124;5.196;2023-02-23T16:08:28;101573.00;;;14.80
20736;BMP180;10528;52.124;5.196;2023-02-23T16:11:16;101572.00;;;14.70
20736;BMP180;10528;52.124;5.196;2023-02-23T16:13:45;101575.00;;;14.70
20736;BMP180;10528;52.124;5.196;2023-02-23T16:16:15;101572.00;;;14.70
20736;BMP180;10528;52.124;5.196;2023-02-23T16:18:53;101580.00;;;14.60
20736;BMP180;10528;52.124;5.196;2023-02-23T16:21:23;101577.00;;;14.60